sensor_id;sensor_type;location;lat;lon;timestamp;P1;durP1;ratioP1;P2;durP2;ratioP2
9374;SDS011;4727;51.202;6.344;2023-07-09T00:02:20;6.35;;;3.58;;
9374;SDS011;4727;51.202;6.344;2023-07-09T00:04:47;4.80;;;3.67;;
9374;SDS011;4727;51.202;6.344;2023-07-09T00:07:29;5.68;;;3.50;;
9374;SDS011;4727;51.202;6.344;2023-07-09T00:09:56;6.65;;;3.58;;
9374;SDS011;4727;51.202;6.344;2023-07-09T00:12:22;4.50;;;4.10;;
9374;SDS011;4727;51.202;6.344;2023-07-09T00:14:48;4.80;;;3.65;;
9374;SDS011;4727;51.202;6.344;2023-07-09T00:17:21;5.70;;;3.88;;
9374;SDS011;4727;51.202;6.344;2023-07-09T00:19:56;8.10;;;3.85;;
9374;SDS011;4727;51.202;6.344;2023-07-09T00:22:22;4.47;;;3.42;;
9374;SDS011;4727;51.202;6.344;2023-07-09T00:24:49;4.10;;;3.70;;
9374;SDS011;4727;51.202;6.344;2023-07-09T00:27:19;6.07;;;3.75;;
9374;SDS011;4727;51.202;6.344;2023-07-09T00:29:46;4.95;;;3.50;;
9374;SDS011;4727;51.202;6.344;2023-07-09T00:32:16;4.93;;;4.00;;
9374;SDS011;4727;51.202;6.344;2023-07-09T00:34:45;3.67;;;3.38;;
9374;SDS011;4727;51.202;6.344;2023-07-09T00:37:16;4.75;;;3.85;;
9374;SDS011;4727;51.202;6.344;2023-07-09T00:39:43;5.32;;;4.15;;
9374;SDS011;4727;51.202;6.344;2023-07-09T00:42:13;4.50;;;3.75;;
9374;SDS011;4727;51.202;6.344;2023-07-09T00:44:45;6.60;;;4.13;;
9374;SDS011;4727;51.202;6.344;2023-07-09T00:47:17;5.15;;;4.15;;
9374;SDS011;4727;51.202;6.344;2023-07-09T00:52:55;4.35;;;3.47;;
9374;SDS011;4727;51.202;6.344;2023-07-09T00:55:25;6.57;;;3.75;;
9374;SDS011;4727;51.202;6.344;2023-07-09T00:57:56;4.55;;;3.67;;
9374;SDS011;4727;51.202;6.344;2023-07-09T01:00:27;4.40;;;4.00;;
9374;SDS011;4727;51.202;6.344;2023-07-09T01:03:00;4.20;;;3.80;;
9374;SDS011;4727;51.202;6.344;2023-07-09T01:05:29;5.25;;;3.75;;
9374;SDS011;4727;51.202;6.344;2023-07-09T01:07:55;4.25;;;3.78;;
9374;SDS011;4727;51.202;6.344;2023-07-09T01:10:23;5.03;;;3.90;;
9374;SDS011;4727;51.202;6.344;2023-07-09T01:12:49;4.75;;;4.25;;
9374;SDS011;4727;51.202;6.344;2023-07-09T01:15:15;9.98;;;3.70;;
9374;SDS011;4727;51.202;6.344;2023-07-09T01:17:41;3.67;;;3.38;;
9374;SDS011;4727;51.202;6.344;2023-07-09T01:20:09;6.43;;;4.13;;
9374;SDS011;4727;51.202;6.344;2023-07-09T01:22:48;4.55;;;4.10;;
9374;SDS011;4727;51.202;6.344;2023-07-09T01:25:15;5.75;;;4.03;;
9374;SDS011;4727;51.202;6.344;2023-07-09T01:27:42;6.30;;;4.18;;
9374;SDS011;4727;51.202;6.344;2023-07-09T01:30:15;5.25;;;4.35;;
9374;SDS011;4727;51.202;6.344;2023-07-09T01:32:47;5.50;;;3.88;;
9374;SDS011;4727;51.202;6.344;2023-07-09T01:35:14;4.85;;;3.63;;
9374;SDS011;4727;51.202;6.344;2023-07-09T01:37:43;4.65;;;3.70;;
9374;SDS011;4727;51.202;6.344;2023-07-09T01:40:09;4.90;;;3.50;;
9374;SDS011;4727;51.202;6.344;2023-07-09T01:42:38;6.07;;;4.22;;
9374;SDS011;4727;51.202;6.344;2023-07-09T01:45:06;3.92;;;3.60;;
9374;SDS011;4727;51.202;6.344;2023-07-09T01:47:35;5.80;;;3.80;;
9374;SDS011;4727;51.202;6.344;2023-07-09T01:50:01;6.07;;;3.80;;
9374;SDS011;4727;51.202;6.344;2023-07-09T01:52:28;5.63;;;3.60;;
9374;SDS011;4727;51.202;6.344;2023-07-09T01:54:56;6.63;;;4.43;;
9374;SDS011;4727;51.202;6.344;2023-07-09T01:57:23;4.70;;;3.97;;
9374;SDS011;4727;51.202;6.344;2023-07-09T01:59:51;4.78;;;3.92;;
9374;SDS011;4727;51.202;6.344;2023-07-09T02:02:23;5.93;;;3.60;;
9374;SDS011;4727;51.202;6.344;2023-07-09T02:04:51;5.68;;;3.83;;
9374;SDS011;4727;51.202;6.344;2023-07-09T02:07:19;6.00;;;4.18;;
9374;SDS011;4727;51.202;6.344;2023-07-09T02:09:46;6.00;;;4.18;;
9374;SDS011;4727;51.202;6.344;2023-07-09T02:12:12;4.50;;;4.10;;
9374;SDS011;4727;51.202;6.344;2023-07-09T02:14:39;5.43;;;4.50;;
9374;SDS011;4727;51.202;6.344;2023-07-09T02:17:06;7.72;;;4.20;;
9374;SDS011;4727;51.202;6.344;2023-07-09T02:19:32;6.03;;;4.13;;
9374;SDS011;4727;51.202;6.344;2023-07-09T02:21:57;7.93;;;4.65;;
9374;SDS011;4727;51.202;6.344;2023-07-09T02:24:23;7.22;;;4.47;;
9374;SDS011;4727;51.202;6.344;2023-07-09T02:26:56;6.50;;;4.75;;
9374;SDS011;4727;51.202;6.344;2023-07-09T02:29:23;7.05;;;4.68;;
9374;SDS011;4727;51.202;6.344;2023-07-09T02:31:50;7.13;;;4.47;;
9374;SDS011;4727;51.202;6.344;2023-07-09T02:34:20;6.22;;;4.03;;
9374;SDS011;4727;51.202;6.344;2023-07-09T02:36:50;11.35;;;3.85;;
9374;SDS011;4727;51.202;6.344;2023-07-09T02:39:17;6.88;;;4.32;;
9374;SDS011;4727;51.202;6.344;2023-07-09T02:41:43;9.83;;;4.33;;
9374;SDS011;4727;51.202;6.344;2023-07-09T02:44:08;6.82;;;3.92;;
9374;SDS011;4727;51.202;6.344;2023-07-09T02:46:35;6.93;;;4.55;;
9374;SDS011;4727;51.202;6.344;2023-07-09T02:49:02;7.88;;;4.72;;
9374;SDS011;4727;51.202;6.344;2023-07-09T02:51:29;9.45;;;4.10;;
9374;SDS011;4727;51.202;6.344;2023-07-09T02:53:55;8.50;;;4.45;;
9374;SDS011;4727;51.202;6.344;2023-07-09T02:56:22;4.38;;;3.83;;
9374;SDS011;4727;51.202;6.344;2023-07-09T02:58:49;9.60;;;4.90;;
9374;SDS011;4727;51.202;6.344;2023-07-09T03:01:15;5.88;;;3.88;;
9374;SDS011;4727;51.202;6.344;2023-07-09T03:03:41;5.40;;;4.22;;
9374;SDS011;4727;51.202;6.344;2023-07-09T03:06:06;5.97;;;4.18;;
9374;SDS011;4727;51.202;6.344;2023-07-09T03:08:32;9.88;;;3.97;;
9374;SDS011;4727;51.202;6.344;2023-07-09T03:10:58;6.28;;;4.40;;
9374;SDS011;4727;51.202;6.344;2023-07-09T03:13:24;6.80;;;4.50;;
9374;SDS011;4727;51.202;6.344;2023-07-09T03:15:53;5.63;;;4.53;;
9374;SDS011;4727;51.202;6.344;2023-07-09T03:18:20;11.52;;;4.07;;
9374;SDS011;4727;51.202;6.344;2023-07-09T03:20:46;9.70;;;4.30;;
9374;SDS011;4727;51.202;6.344;2023-07-09T03:23:11;8.30;;;4.90;;
9374;SDS011;4727;51.202;6.344;2023-07-09T03:25:40;5.47;;;4.47;;
9374;SDS011;4727;51.202;6.344;2023-07-09T03:28:06;5.30;;;4.30;;
9374;SDS011;4727;51.202;6.344;2023-07-09T03:30:32;8.25;;;4.55;;
9374;SDS011;4727;51.202;6.344;2023-07-09T03:32:58;9.32;;;4.30;;
9374;SDS011;4727;51.202;6.344;2023-07-09T03:35:23;6.05;;;4.25;;
9374;SDS011;4727;51.202;6.344;2023-07-09T03:37:50;6.65;;;4.47;;
9374;SDS011;4727;51.202;6.344;2023-07-09T03:40:20;5.68;;;4.25;;
9374;SDS011;4727;51.202;6.344;2023-07-09T03:42:47;8.45;;;4.25;;
9374;SDS011;4727;51.202;6.344;2023-07-09T03:45:12;6.40;;;4.45;;
9374;SDS011;4727;51.202;6.344;2023-07-09T03:47:38;6.70;;;4.90;;
9374;SDS011;4727;51.202;6.344;2023-07-09T03:50:04;9.50;;;4.20;;
9374;SDS011;4727;51.202;6.344;2023-07-09T03:52:34;5.90;;;4.68;;
9374;SDS011;4727;51.202;6.344;2023-07-09T03:55:01;8.18;;;4.57;;
9374;SDS011;4727;51.202;6.344;2023-07-09T03:57:29;10.45;;;4.47;;
9374;SDS011;4727;51.202;6.344;2023-07-09T03:59:55;9.65;;;4.63;;
9374;SDS011;4727;51.202;6.344;2023-07-09T04:02:20;6.45;;;4.32;;
9374;SDS011;4727;51.202;6.344;2023-07-09T04:04:46;9.43;;;5.03;;
9374;SDS011;4727;51.202;6.344;2023-07-09T04:07:12;4.97;;;4.38;;
9374;SDS011;4727;51.202;6.344;2023-07-09T04:09:37;5.20;;;3.88;;
9374;SDS011;4727;51.202;6.344;2023-07-09T04:12:03;5.75;;;4.07;;
9374;SDS011;4727;51.202;6.344;2023-07-09T04:14:29;4.38;;;3.58;;
9374;SDS011;4727;51.202;6.344;2023-07-09T04:16:55;17.02;;;4.65;;
9374;SDS011;4727;51.202;6.344;2023-07-09T04:19:20;6.10;;;4.45;;
9374;SDS011;4727;51.202;6.344;2023-07-09T04:21:46;4.93;;;4.05;;
9374;SDS011;4727;51.202;6.344;2023-07-09T04:24:11;5.13;;;3.93;;
9374;SDS011;4727;51.202;6.344;2023-07-09T04:26:38;6.90;;;4.18;;
9374;SDS011;4727;51.202;6.344;2023-07-09T04:29:05;7.90;;;4.70;;
9374;SDS011;4727;51.202;6.344;2023-07-09T04:31:31;7.65;;;4.63;;
9374;SDS011;4727;51.202;6.344;2023-07-09T04:33:56;8.60;;;4.22;;
9374;SDS011;4727;51.202;6.344;2023-07-09T04:36:22;6.65;;;3.80;;
9374;SDS011;4727;51.202;6.344;2023-07-09T04:38:48;4.78;;;4.10;;
9374;SDS011;4727;51.202;6.344;2023-07-09T04:41:13;7.50;;;4.63;;
9374;SDS011;4727;51.202;6.344;2023-07-09T04:43:39;13.77;;;4.93;;
9374;SDS011;4727;51.202;6.344;2023-07-09T04:46:05;6.88;;;4.25;;
9374;SDS011;4727;51.202;6.344;2023-07-09T04:48:30;8.43;;;4.45;;
9374;SDS011;4727;51.202;6.344;2023-07-09T04:50:56;7.97;;;4.65;;
9374;SDS011;4727;51.202;6.344;2023-07-09T04:53:21;5.63;;;4.20;;
9374;SDS011;4727;51.202;6.344;2023-07-09T04:55:49;5.88;;;4.35;;
9374;SDS011;4727;51.202;6.344;2023-07-09T04:58:14;5.90;;;4.35;;
9374;SDS011;4727;51.202;6.344;2023-07-09T05:00:41;8.15;;;4.60;;
9374;SDS011;4727;51.202;6.344;2023-07-09T05:03:07;9.60;;;4.85;;
9374;SDS011;4727;51.202;6.344;2023-07-09T05:05:33;6.95;;;4.07;;
9374;SDS011;4727;51.202;6.344;2023-07-09T05:07:59;7.93;;;4.75;;
9374;SDS011;4727;51.202;6.344;2023-07-09T05:10:25;7.60;;;4.50;;
9374;SDS011;4727;51.202;6.344;2023-07-09T05:12:51;8.82;;;4.68;;
9374;SDS011;4727;51.202;6.344;2023-07-09T05:15:19;9.88;;;4.70;;
9374;SDS011;4727;51.202;6.344;2023-07-09T05:17:46;7.57;;;4.50;;
9374;SDS011;4727;51.202;6.344;2023-07-09T05:20:13;8.95;;;4.32;;
9374;SDS011;4727;51.202;6.344;2023-07-09T05:22:39;11.13;;;4.65;;
9374;SDS011;4727;51.202;6.344;2023-07-09T05:25:05;5.80;;;4.22;;
9374;SDS011;4727;51.202;6.344;2023-07-09T05:27:31;6.35;;;4.65;;
9374;SDS011;4727;51.202;6.344;2023-07-09T05:29:57;6.22;;;4.25;;
9374;SDS011;4727;51.202;6.344;2023-07-09T05:32:23;9.73;;;4.35;;
9374;SDS011;4727;51.202;6.344;2023-07-09T05:34:49;10.80;;;4.70;;
9374;SDS011;4727;51.202;6.344;2023-07-09T05:37:14;6.97;;;4.88;;
9374;SDS011;4727;51.202;6.344;2023-07-09T05:39:40;5.70;;;4.35;;
9374;SDS011;4727;51.202;6.344;2023-07-09T05:42:06;6.43;;;4.40;;
9374;SDS011;4727;51.202;6.344;2023-07-09T05:44:32;12.93;;;4.57;;
9374;SDS011;4727;51.202;6.344;2023-07-09T05:46:57;5.03;;;4.57;;
9374;SDS011;4727;51.202;6.344;2023-07-09T05:49:23;9.18;;;4.15;;
9374;SDS011;4727;51.202;6.344;2023-07-09T05:51:48;4.93;;;4.47;;
9374;SDS011;4727;51.202;6.344;2023-07-09T05:54:14;8.25;;;4.60;;
9374;SDS011;4727;51.202;6.344;2023-07-09T05:56:39;5.30;;;4.72;;
9374;SDS011;4727;51.202;6.344;2023-07-09T05:59:05;6.38;;;3.95;;
9374;SDS011;4727;51.202;6.344;2023-07-09T06:01:31;5.78;;;4.38;;
9374;SDS011;4727;51.202;6.344;2023-07-09T06:03:57;9.40;;;4.57;;
9374;SDS011;4727;51.202;6.344;2023-07-09T06:06:22;4.97;;;4.47;;
9374;SDS011;4727;51.202;6.344;2023-07-09T06:08:48;5.97;;;3.70;;
9374;SDS011;4727;51.202;6.344;2023-07-09T06:11:15;6.00;;;4.35;;
9374;SDS011;4727;51.202;6.344;2023-07-09T06:13:42;9.32;;;5.18;;
9374;SDS011;4727;51.202;6.344;2023-07-09T06:16:08;4.95;;;4.13;;
9374;SDS011;4727;51.202;6.344;2023-07-09T06:18:34;6.45;;;4.72;;
9374;SDS011;4727;51.202;6.344;2023-07-09T06:21:00;6.88;;;4.97;;
9374;SDS011;4727;51.202;6.344;2023-07-09T06:23:27;7.65;;;5.05;;
9374;SDS011;4727;51.202;6.344;2023-07-09T06:25:52;9.30;;;4.28;;
9374;SDS011;4727;51.202;6.344;2023-07-09T06:28:19;7.90;;;4.53;;
9374;SDS011;4727;51.202;6.344;2023-07-09T06:30:47;5.53;;;4.80;;
9374;SDS011;4727;51.202;6.344;2023-07-09T06:33:13;5.55;;;4.63;;
9374;SDS011;4727;51.202;6.344;2023-07-09T06:35:47;6.55;;;4.30;;
9374;SDS011;4727;51.202;6.344;2023-07-09T06:38:17;5.30;;;4.68;;
9374;SDS011;4727;51.202;6.344;2023-07-09T06:40:43;5.60;;;4.70;;
9374;SDS011;4727;51.202;6.344;2023-07-09T06:43:09;4.97;;;4.45;;
9374;SDS011;4727;51.202;6.344;2023-07-09T06:45:34;7.78;;;5.13;;
9374;SDS011;4727;51.202;6.344;2023-07-09T06:48:00;10.32;;;5.07;;
9374;SDS011;4727;51.202;6.344;2023-07-09T06:50:26;10.15;;;4.90;;
9374;SDS011;4727;51.202;6.344;2023-07-09T06:52:52;8.23;;;4.88;;
9374;SDS011;4727;51.202;6.344;2023-07-09T06:55:17;7.72;;;4.85;;
9374;SDS011;4727;51.202;6.344;2023-07-09T06:57:43;5.68;;;4.43;;
9374;SDS011;4727;51.202;6.344;2023-07-09T07:00:09;4.68;;;4.25;;
9374;SDS011;4727;51.202;6.344;2023-07-09T07:02:35;4.93;;;4.40;;
9374;SDS011;4727;51.202;6.344;2023-07-09T07:05:01;5.72;;;4.68;;
9374;SDS011;4727;51.202;6.344;2023-07-09T07:07:26;5.93;;;4.85;;
9374;SDS011;4727;51.202;6.344;2023-07-09T07:09:52;5.40;;;4.47;;
9374;SDS011;4727;51.202;6.344;2023-07-09T07:12:24;5.18;;;4.70;;
9374;SDS011;4727;51.202;6.344;2023-07-09T07:14:52;5.20;;;4.03;;
9374;SDS011;4727;51.202;6.344;2023-07-09T07:17:18;6.55;;;4.32;;
9374;SDS011;4727;51.202;6.344;2023-07-09T07:19:43;5.32;;;4.13;;
9374;SDS011;4727;51.202;6.344;2023-07-09T07:22:10;7.50;;;4.47;;
9374;SDS011;4727;51.202;6.344;2023-07-09T07:24:35;5.20;;;4.32;;
9374;SDS011;4727;51.202;6.344;2023-07-09T07:27:01;7.65;;;4.85;;
9374;SDS011;4727;51.202;6.344;2023-07-09T07:29:26;4.70;;;4.18;;
9374;SDS011;4727;51.202;6.344;2023-07-09T07:31:53;4.82;;;4.35;;
9374;SDS011;4727;51.202;6.344;2023-07-09T07:34:19;6.43;;;4.40;;
9374;SDS011;4727;51.202;6.344;2023-07-09T07:36:44;5.95;;;4.30;;
9374;SDS011;4727;51.202;6.344;2023-07-09T07:39:10;3.83;;;3.53;;
9374;SDS011;4727;51.202;6.344;2023-07-09T07:41:36;5.63;;;4.45;;
9374;SDS011;4727;51.202;6.344;2023-07-09T07:44:01;6.07;;;4.47;;
9374;SDS011;4727;51.202;6.344;2023-07-09T07:46:27;6.20;;;4.03;;
9374;SDS011;4727;51.202;6.344;2023-07-09T07:48:54;4.55;;;4.15;;
9374;SDS011;4727;51.202;6.344;2023-07-09T07:51:20;9.40;;;4.55;;
9374;SDS011;4727;51.202;6.344;2023-07-09T07:53:47;8.13;;;4.63;;
9374;SDS011;4727;51.202;6.344;2023-07-09T07:56:14;4.60;;;4.18;;
9374;SDS011;4727;51.202;6.344;2023-07-09T07:58:39;5.93;;;5.10;;
9374;SDS011;4727;51.202;6.344;2023-07-09T08:01:05;4.07;;;3.72;;
9374;SDS011;4727;51.202;6.344;2023-07-09T08:03:31;6.55;;;4.40;;
9374;SDS011;4727;51.202;6.344;2023-07-09T08:05:56;6.85;;;4.35;;
9374;SDS011;4727;51.202;6.344;2023-07-09T08:08:22;4.30;;;3.90;;
9374;SDS011;4727;51.202;6.344;2023-07-09T08:10:49;3.90;;;3.60;;
9374;SDS011;4727;51.202;6.344;2023-07-09T08:13:15;5.50;;;4.55;;
9374;SDS011;4727;51.202;6.344;2023-07-09T08:15:41;4.68;;;4.05;;
9374;SDS011;4727;51.202;6.344;2023-07-09T08:18:07;4.28;;;3.88;;
9374;SDS011;4727;51.202;6.344;2023-07-09T08:20:33;6.97;;;3.90;;
9374;SDS011;4727;51.202;6.344;2023-07-09T08:22:58;9.57;;;4.60;;
9374;SDS011;4727;51.202;6.344;2023-07-09T08:25:24;4.60;;;4.20;;
9374;SDS011;4727;51.202;6.344;2023-07-09T08:27:50;4.68;;;3.75;;
9374;SDS011;4727;51.202;6.344;2023-07-09T08:30:15;4.93;;;4.18;;
9374;SDS011;4727;51.202;6.344;2023-07-09T08:32:41;4.68;;;3.55;;
9374;SDS011;4727;51.202;6.344;2023-07-09T08:35:07;5.97;;;3.58;;
9374;SDS011;4727;51.202;6.344;2023-07-09T08:37:35;6.47;;;4.10;;
9374;SDS011;4727;51.202;6.344;2023-07-09T08:40:00;4.43;;;3.90;;
9374;SDS011;4727;51.202;6.344;2023-07-09T08:42:31;4.93;;;4.07;;
9374;SDS011;4727;51.202;6.344;2023-07-09T08:45:18;4.60;;;3.92;;
9374;SDS011;4727;51.202;6.344;2023-07-09T08:50:47;4.65;;;4.20;;
9374;SDS011;4727;51.202;6.344;2023-07-09T08:53:20;4.50;;;3.80;;
9374;SDS011;4727;51.202;6.344;2023-07-09T08:55:52;5.57;;;3.47;;
9374;SDS011;4727;51.202;6.344;2023-07-09T08:58:28;4.32;;;3.83;;
9374;SDS011;4727;51.202;6.344;2023-07-09T09:01:05;4.07;;;3.78;;
9374;SDS011;4727;51.202;6.344;2023-07-09T09:03:44;4.05;;;3.65;;
9374;SDS011;4727;51.202;6.344;2023-07-09T09:06:18;4.07;;;3.72;;
9374;SDS011;4727;51.202;6.344;2023-07-09T09:08:55;5.13;;;3.53;;
9374;SDS011;4727;51.202;6.344;2023-07-09T09:11:48;4.07;;;3.67;;
9374;SDS011;4727;51.202;6.344;2023-07-09T09:14:32;3.83;;;3.53;;
9374;SDS011;4727;51.202;6.344;2023-07-09T09:17:02;4.10;;;3.80;;
9374;SDS011;4727;51.202;6.344;2023-07-09T09:19:37;5.97;;;3.28;;
9374;SDS011;4727;51.202;6.344;2023-07-09T09:22:13;3.35;;;3.13;;
9374;SDS011;4727;51.202;6.344;2023-07-09T09:27:40;3.65;;;3.22;;
9374;SDS011;4727;51.202;6.344;2023-07-09T09:30:14;3.58;;;3.28;;
9374;SDS011;4727;51.202;6.344;2023-07-09T09:32:45;3.72;;;3.20;;
9374;SDS011;4727;51.202;6.344;2023-07-09T09:35:14;3.35;;;3.13;;
9374;SDS011;4727;51.202;6.344;2023-07-09T09:37:44;4.97;;;3.40;;
9374;SDS011;4727;51.202;6.344;2023-07-09T09:40:16;5.50;;;3.85;;
9374;SDS011;4727;51.202;6.344;2023-07-09T09:42:44;3.80;;;2.85;;
9374;SDS011;4727;51.202;6.344;2023-07-09T09:45:15;4.03;;;2.95;;
9374;SDS011;4727;51.202;6.344;2023-07-09T09:47:43;7.13;;;3.08;;
9374;SDS011;4727;51.202;6.344;2023-07-09T09:50:16;3.25;;;3.03;;
9374;SDS011;4727;51.202;6.344;2023-07-09T09:52:43;3.72;;;3.35;;
9374;SDS011;4727;51.202;6.344;2023-07-09T09:55:13;7.50;;;3.63;;
9374;SDS011;4727;51.202;6.344;2023-07-09T09:57:50;3.35;;;3.08;;
9374;SDS011;4727;51.202;6.344;2023-07-09T10:00:18;3.78;;;3.33;;
9374;SDS011;4727;51.202;6.344;2023-07-09T10:02:48;3.47;;;2.97;;
9374;SDS011;4727;51.202;6.344;2023-07-09T10:05:14;3.28;;;3.08;;
9374;SDS011;4727;51.202;6.344;2023-07-09T10:07:46;4.05;;;3.42;;
9374;SDS011;4727;51.202;6.344;2023-07-09T10:10:24;3.00;;;2.83;;
9374;SDS011;4727;51.202;6.344;2023-07-09T10:12:55;4.10;;;3.25;;
9374;SDS011;4727;51.202;6.344;2023-07-09T10:18:13;4.50;;;3.42;;
9374;SDS011;4727;51.202;6.344;2023-07-09T10:21:18;4.20;;;3.03;;
9374;SDS011;4727;51.202;6.344;2023-07-09T10:26:55;2.83;;;2.63;;
9374;SDS011;4727;51.202;6.344;2023-07-09T10:29:52;3.53;;;3.22;;
9374;SDS011;4727;51.202;6.344;2023-07-09T10:33:01;3.20;;;2.95;;
9374;SDS011;4727;51.202;6.344;2023-07-09T10:35:56;3.20;;;3.00;;
9374;SDS011;4727;51.202;6.344;2023-07-09T10:38:29;2.90;;;2.70;;
9374;SDS011;4727;51.202;6.344;2023-07-09T10:41:00;4.55;;;2.97;;
9374;SDS011;4727;51.202;6.344;2023-07-09T10:46:14;2.90;;;2.70;;
9374;SDS011;4727;51.202;6.344;2023-07-09T10:48:51;3.10;;;2.83;;
9374;SDS011;4727;51.202;6.344;2023-07-09T10:51:24;5.68;;;3.20;;
9374;SDS011;4727;51.202;6.344;2023-07-09T10:56:47;4.07;;;3.13;;
9374;SDS011;4727;51.202;6.344;2023-07-09T10:59:24;3.10;;;2.90;;
9374;SDS011;4727;51.202;6.344;2023-07-09T11:02:36;3.25;;;2.95;;
9374;SDS011;4727;51.202;6.344;2023-07-09T11:07:33;2.70;;;2.55;;
9374;SDS011;4727;51.202;6.344;2023-07-09T11:13:02;8.07;;;3.53;;
9374;SDS011;4727;51.202;6.344;2023-07-09T11:15:36;3.80;;;3.50;;
9374;SDS011;4727;51.202;6.344;2023-07-09T11:18:07;4.35;;;2.67;;
9374;SDS011;4727;51.202;6.344;2023-07-09T11:20:42;3.75;;;3.20;;
9374;SDS011;4727;51.202;6.344;2023-07-09T11:23:20;2.80;;;2.70;;
9374;SDS011;4727;51.202;6.344;2023-07-09T11:26:03;3.85;;;2.88;;
9374;SDS011;4727;51.202;6.344;2023-07-09T11:28:40;2.90;;;2.70;;
9374;SDS011;4727;51.202;6.344;2023-07-09T11:31:53;4.40;;;2.85;;
9374;SDS011;4727;51.202;6.344;2023-07-09T11:36:33;3.13;;;2.92;;
9374;SDS011;4727;51.202;6.344;2023-07-09T11:38:59;3.10;;;2.78;;
9374;SDS011;4727;51.202;6.344;2023-07-09T11:41:37;3.20;;;2.92;;
9374;SDS011;4727;51.202;6.344;2023-07-09T11:49:19;3.25;;;3.00;;
9374;SDS011;4727;51.202;6.344;2023-07-09T11:51:49;3.10;;;2.90;;
9374;SDS011;4727;51.202;6.344;2023-07-09T11:54:19;3.30;;;3.10;;
9374;SDS011;4727;51.202;6.344;2023-07-09T11:56:55;3.35;;;3.05;;
9374;SDS011;4727;51.202;6.344;2023-07-09T11:59:22;3.10;;;2.90;;
9374;SDS011;4727;51.202;6.344;2023-07-09T12:01:48;3.60;;;3.30;;
9374;SDS011;4727;51.202;6.344;2023-07-09T12:04:16;3.60;;;3.30;;
9374;SDS011;4727;51.202;6.344;2023-07-09T12:06:44;3.22;;;2.90;;
9374;SDS011;4727;51.202;6.344;2023-07-09T12:09:17;2.92;;;2.75;;
9374;SDS011;4727;51.202;6.344;2023-07-09T12:11:45;3.20;;;2.80;;
9374;SDS011;4727;51.202;6.344;2023-07-09T12:14:19;2.63;;;2.50;;
9374;SDS011;4727;51.202;6.344;2023-07-09T12:16:47;3.30;;;2.55;;
9374;SDS011;4727;51.202;6.344;2023-07-09T12:19:16;3.13;;;2.88;;
9374;SDS011;4727;51.202;6.344;2023-07-09T12:21:45;2.55;;;2.35;;
9374;SDS011;4727;51.202;6.344;2023-07-09T12:24:29;2.70;;;2.50;;
9374;SDS011;4727;51.202;6.344;2023-07-09T12:27:01;2.70;;;2.47;;
9374;SDS011;4727;51.202;6.344;2023-07-09T12:29:28;2.95;;;2.75;;
9374;SDS011;4727;51.202;6.344;2023-07-09T12:31:58;3.05;;;2.80;;
9374;SDS011;4727;51.202;6.344;2023-07-09T12:34:24;4.63;;;2.75;;
9374;SDS011;4727;51.202;6.344;2023-07-09T12:36:51;3.30;;;2.30;;
9374;SDS011;4727;51.202;6.344;2023-07-09T12:39:22;2.72;;;2.53;;
9374;SDS011;4727;51.202;6.344;2023-07-09T12:41:50;3.13;;;2.88;;
9374;SDS011;4727;51.202;6.344;2023-07-09T12:44:21;3.40;;;3.20;;
9374;SDS011;4727;51.202;6.344;2023-07-09T12:46:48;4.30;;;3.35;;
9374;SDS011;4727;51.202;6.344;2023-07-09T12:49:23;3.28;;;2.90;;
9374;SDS011;4727;51.202;6.344;2023-07-09T12:51:54;3.47;;;3.17;;
9374;SDS011;4727;51.202;6.344;2023-07-09T12:54:21;3.60;;;3.30;;
9374;SDS011;4727;51.202;6.344;2023-07-09T12:56:50;3.20;;;2.85;;
9374;SDS011;4727;51.202;6.344;2023-07-09T12:59:22;2.88;;;2.67;;
9374;SDS011;4727;51.202;6.344;2023-07-09T13:02:37;3.05;;;2.85;;
9374;SDS011;4727;51.202;6.344;2023-07-09T13:04:48;3.17;;;2.97;;
9374;SDS011;4727;51.202;6.344;2023-07-09T13:09:52;6.72;;;3.40;;
9374;SDS011;4727;51.202;6.344;2023-07-09T13:12:20;2.90;;;2.70;;
9374;SDS011;4727;51.202;6.344;2023-07-09T13:14:53;3.17;;;2.90;;
9374;SDS011;4727;51.202;6.344;2023-07-09T13:17:20;3.83;;;3.53;;
9374;SDS011;4727;51.202;6.344;2023-07-09T13:19:46;3.40;;;3.10;;
9374;SDS011;4727;51.202;6.344;2023-07-09T13:22:12;3.67;;;3.38;;
9374;SDS011;4727;51.202;6.344;2023-07-09T13:24:39;3.67;;;3.38;;
9374;SDS011;4727;51.202;6.344;2023-07-09T13:27:07;7.65;;;3.55;;
9374;SDS011;4727;51.202;6.344;2023-07-09T13:29:36;3.58;;;3.30;;
9374;SDS011;4727;51.202;6.344;2023-07-09T13:32:07;4.32;;;3.90;;
9374;SDS011;4727;51.202;6.344;2023-07-09T13:34:37;6.32;;;3.30;;
9374;SDS011;4727;51.202;6.344;2023-07-09T13:37:04;3.17;;;2.97;;
9374;SDS011;4727;51.202;6.344;2023-07-09T13:39:33;6.93;;;3.40;;
9374;SDS011;4727;51.202;6.344;2023-07-09T13:41:58;4.07;;;3.15;;
9374;SDS011;4727;51.202;6.344;2023-07-09T13:44:27;5.55;;;3.60;;
9374;SDS011;4727;51.202;6.344;2023-07-09T13:46:54;3.53;;;3.22;;
9374;SDS011;4727;51.202;6.344;2023-07-09T13:49:21;7.32;;;3.45;;
9374;SDS011;4727;51.202;6.344;2023-07-09T13:51:49;4.20;;;3.50;;
9374;SDS011;4727;51.202;6.344;2023-07-09T13:54:19;4.70;;;3.25;;
9374;SDS011;4727;51.202;6.344;2023-07-09T13:56:49;3.58;;;3.22;;
9374;SDS011;4727;51.202;6.344;2023-07-09T13:59:17;3.55;;;3.25;;
9374;SDS011;4727;51.202;6.344;2023-07-09T14:01:44;3.78;;;2.88;;
9374;SDS011;4727;51.202;6.344;2023-07-09T14:04:12;3.67;;;3.05;;
9374;SDS011;4727;51.202;6.344;2023-07-09T14:06:40;2.75;;;2.55;;
9374;SDS011;4727;51.202;6.344;2023-07-09T14:09:05;3.05;;;2.85;;
9374;SDS011;4727;51.202;6.344;2023-07-09T14:11:33;9.20;;;3.47;;
9374;SDS011;4727;51.202;6.344;2023-07-09T14:13:59;7.30;;;3.70;;
9374;SDS011;4727;51.202;6.344;2023-07-09T14:16:25;6.13;;;4.20;;
9374;SDS011;4727;51.202;6.344;2023-07-09T14:18:50;4.72;;;4.25;;
9374;SDS011;4727;51.202;6.344;2023-07-09T14:21:22;4.05;;;3.70;;
9374;SDS011;4727;51.202;6.344;2023-07-09T14:23:50;5.10;;;3.67;;
9374;SDS011;4727;51.202;6.344;2023-07-09T14:26:15;6.05;;;4.30;;
9374;SDS011;4727;51.202;6.344;2023-07-09T14:28:41;5.90;;;4.10;;
9374;SDS011;4727;51.202;6.344;2023-07-09T14:31:13;5.45;;;4.95;;
9374;SDS011;4727;51.202;6.344;2023-07-09T14:33:51;5.10;;;4.40;;
9374;SDS011;4727;51.202;6.344;2023-07-09T14:36:17;7.85;;;4.95;;
9374;SDS011;4727;51.202;6.344;2023-07-09T14:38:42;5.13;;;4.55;;
9374;SDS011;4727;51.202;6.344;2023-07-09T14:41:18;8.55;;;4.97;;
9374;SDS011;4727;51.202;6.344;2023-07-09T14:43:46;8.18;;;6.13;;
9374;SDS011;4727;51.202;6.344;2023-07-09T14:46:12;9.90;;;6.22;;
9374;SDS011;4727;51.202;6.344;2023-07-09T14:48:37;7.72;;;5.35;;
9374;SDS011;4727;51.202;6.344;2023-07-09T14:51:08;6.72;;;5.72;;
9374;SDS011;4727;51.202;6.344;2023-07-09T14:53:40;7.78;;;5.80;;
9374;SDS011;4727;51.202;6.344;2023-07-09T14:56:05;5.80;;;5.20;;
9374;SDS011;4727;51.202;6.344;2023-07-09T14:58:31;13.23;;;7.43;;
9374;SDS011;4727;51.202;6.344;2023-07-09T15:00:56;13.30;;;8.38;;
9374;SDS011;4727;51.202;6.344;2023-07-09T15:03:23;6.20;;;5.35;;
9374;SDS011;4727;51.202;6.344;2023-07-09T15:05:50;9.27;;;5.60;;
9374;SDS011;4727;51.202;6.344;2023-07-09T15:08:18;5.50;;;4.97;;
9374;SDS011;4727;51.202;6.344;2023-07-09T15:10:46;6.00;;;5.55;;
9374;SDS011;4727;51.202;6.344;2023-07-09T15:15:49;5.20;;;4.78;;
9374;SDS011;4727;51.202;6.344;2023-07-09T15:18:15;8.95;;;5.53;;
9374;SDS011;4727;51.202;6.344;2023-07-09T15:20:43;6.35;;;5.78;;
9374;SDS011;4727;51.202;6.344;2023-07-09T15:23:19;7.35;;;5.43;;
9374;SDS011;4727;51.202;6.344;2023-07-09T15:25:47;6.25;;;4.72;;
9374;SDS011;4727;51.202;6.344;2023-07-09T15:28:14;10.45;;;6.20;;
9374;SDS011;4727;51.202;6.344;2023-07-09T15:30:40;16.73;;;5.55;;
9374;SDS011;4727;51.202;6.344;2023-07-09T15:33:08;8.27;;;4.70;;
9374;SDS011;4727;51.202;6.344;2023-07-09T15:35:40;6.47;;;4.80;;
9374;SDS011;4727;51.202;6.344;2023-07-09T15:38:49;7.25;;;5.13;;
9374;SDS011;4727;51.202;6.344;2023-07-09T15:40:57;5.95;;;4.32;;
9374;SDS011;4727;51.202;6.344;2023-07-09T15:43:23;6.38;;;5.28;;
9374;SDS011;4727;51.202;6.344;2023-07-09T15:45:50;5.43;;;4.72;;
9374;SDS011;4727;51.202;6.344;2023-07-09T15:48:22;5.38;;;4.63;;
9374;SDS011;4727;51.202;6.344;2023-07-09T15:50:48;7.85;;;4.50;;
9374;SDS011;4727;51.202;6.344;2023-07-09T15:53:14;5.55;;;4.63;;
9374;SDS011;4727;51.202;6.344;2023-07-09T15:55:39;7.00;;;4.32;;
9374;SDS011;4727;51.202;6.344;2023-07-09T15:58:08;4.50;;;4.03;;
9374;SDS011;4727;51.202;6.344;2023-07-09T16:00:46;5.28;;;3.97;;
9374;SDS011;4727;51.202;6.344;2023-07-09T16:03:12;4.80;;;4.30;;
9374;SDS011;4727;51.202;6.344;2023-07-09T16:05:38;4.22;;;3.72;;